sensor_id;sensor_type;location;lat;lon;timestamp;P1;durP1;ratioP1;P2;durP2;ratioP2
13331;SDS011;6735;51.456;12.626;2022-07-10T00:00:05;4.67;;;1.70;;
13331;SDS011;6735;51.456;12.626;2022-07-10T00:02:36;1.90;;;1.50;;
13331;SDS011;6735;51.456;12.626;2022-07-10T00:05:03;4.73;;;1.83;;
13331;SDS011;6735;51.456;12.626;2022-07-10T00:07:29;2.80;;;1.60;;
13331;SDS011;6735;51.456;12.626;2022-07-10T00:09:55;3.77;;;1.50;;
13331;SDS011;6735;51.456;12.626;2022-07-10T00:12:20;6.67;;;1.60;;
13331;SDS011;6735;51.456;12.626;2022-07-10T00:14:46;2.23;;;1.40;;
13331;SDS011;6735;51.456;12.626;2022-07-10T00:17:11;3.53;;;1.73;;
13331;SDS011;6735;51.456;12.626;2022-07-10T00:19:37;2.33;;;1.40;;
13331;SDS011;6735;51.456;12.626;2022-07-10T00:22:02;4.33;;;1.87;;
13331;SDS011;6735;51.456;12.626;2022-07-10T00:24:28;3.73;;;1.73;;
13331;SDS011;6735;51.456;12.626;2022-07-10T00:26:54;4.50;;;1.80;;
13331;SDS011;6735;51.456;12.626;2022-07-10T00:29:19;2.77;;;1.50;;
13331;SDS011;6735;51.456;12.626;2022-07-10T00:31:45;4.53;;;1.90;;
13331;SDS011;6735;51.456;12.626;2022-07-10T00:34:10;4.83;;;2.23;;
13331;SDS011;6735;51.456;12.626;2022-07-10T00:36:37;3.47;;;1.70;;
13331;SDS011;6735;51.456;12.626;2022-07-10T00:39:03;3.40;;;1.97;;
13331;SDS011;6735;51.456;12.626;2022-07-10T00:41:28;2.83;;;1.77;;
13331;SDS011;6735;51.456;12.626;2022-07-10T00:43:58;4.10;;;1.90;;
13331;SDS011;6735;51.456;12.626;2022-07-10T00:46:25;4.20;;;1.70;;
13331;SDS011;6735;51.456;12.626;2022-07-10T00:48:51;4.23;;;1.60;;
13331;SDS011;6735;51.456;12.626;2022-07-10T00:51:18;3.37;;;1.60;;
13331;SDS011;6735;51.456;12.626;2022-07-10T00:53:45;5.37;;;2.10;;
13331;SDS011;6735;51.456;12.626;2022-07-10T00:56:11;3.80;;;1.73;;
13331;SDS011;6735;51.456;12.626;2022-07-10T00:58:39;4.63;;;1.80;;
13331;SDS011;6735;51.456;12.626;2022-07-10T01:01:06;3.93;;;1.80;;
13331;SDS011;6735;51.456;12.626;2022-07-10T01:03:32;3.30;;;1.90;;
13331;SDS011;6735;51.456;12.626;2022-07-10T01:05:57;5.30;;;2.10;;
13331;SDS011;6735;51.456;12.626;2022-07-10T01:08:23;3.10;;;1.87;;
13331;SDS011;6735;51.456;12.626;2022-07-10T01:10:49;4.03;;;1.77;;
13331;SDS011;6735;51.456;12.626;2022-07-10T01:13:15;2.47;;;1.47;;
13331;SDS011;6735;51.456;12.626;2022-07-10T01:15:41;3.97;;;1.90;;
13331;SDS011;6735;51.456;12.626;2022-07-10T01:18:07;5.57;;;1.83;;
13331;SDS011;6735;51.456;12.626;2022-07-10T01:20:33;4.70;;;1.80;;
13331;SDS011;6735;51.456;12.626;2022-07-10T01:22:59;3.23;;;1.97;;
13331;SDS011;6735;51.456;12.626;2022-07-10T01:25:25;5.30;;;1.80;;
13331;SDS011;6735;51.456;12.626;2022-07-10T01:27:51;3.33;;;1.70;;
13331;SDS011;6735;51.456;12.626;2022-07-10T01:30:17;2.97;;;1.57;;
13331;SDS011;6735;51.456;12.626;2022-07-10T01:32:46;5.47;;;1.80;;
13331;SDS011;6735;51.456;12.626;2022-07-10T01:35:12;3.07;;;1.30;;
13331;SDS011;6735;51.456;12.626;2022-07-10T01:37:39;4.27;;;1.40;;
13331;SDS011;6735;51.456;12.626;2022-07-10T01:40:05;2.93;;;1.27;;
13331;SDS011;6735;51.456;12.626;2022-07-10T01:42:31;3.83;;;1.40;;
13331;SDS011;6735;51.456;12.626;2022-07-10T01:44:57;3.97;;;1.60;;
13331;SDS011;6735;51.456;12.626;2022-07-10T01:47:23;4.43;;;1.60;;
13331;SDS011;6735;51.456;12.626;2022-07-10T01:49:53;5.83;;;1.57;;
13331;SDS011;6735;51.456;12.626;2022-07-10T01:52:19;3.27;;;1.50;;
13331;SDS011;6735;51.456;12.626;2022-07-10T01:54:45;4.13;;;1.70;;
13331;SDS011;6735;51.456;12.626;2022-07-10T01:57:11;3.83;;;1.70;;
13331;SDS011;6735;51.456;12.626;2022-07-10T01:59:38;3.10;;;1.67;;
13331;SDS011;6735;51.456;12.626;2022-07-10T02:02:04;5.77;;;1.70;;
13331;SDS011;6735;51.456;12.626;2022-07-10T02:04:30;3.53;;;1.57;;
13331;SDS011;6735;51.456;12.626;2022-07-10T02:07:09;3.00;;;1.60;;
13331;SDS011;6735;51.456;12.626;2022-07-10T02:09:35;4.93;;;1.63;;
13331;SDS011;6735;51.456;12.626;2022-07-10T02:12:01;5.00;;;1.50;;
13331;SDS011;6735;51.456;12.626;2022-07-10T02:14:27;3.33;;;1.97;;
13331;SDS011;6735;51.456;12.626;2022-07-10T02:16:53;3.83;;;1.60;;
13331;SDS011;6735;51.456;12.626;2022-07-10T02:19:19;6.73;;;2.07;;
13331;SDS011;6735;51.456;12.626;2022-07-10T02:21:44;4.63;;;1.73;;
13331;SDS011;6735;51.456;12.626;2022-07-10T02:24:11;3.37;;;1.70;;
13331;SDS011;6735;51.456;12.626;2022-07-10T02:26:36;3.50;;;1.30;;
13331;SDS011;6735;51.456;12.626;2022-07-10T02:29:02;3.73;;;1.30;;
13331;SDS011;6735;51.456;12.626;2022-07-10T02:31:28;5.83;;;1.90;;
13331;SDS011;6735;51.456;12.626;2022-07-10T02:33:53;2.83;;;1.33;;
13331;SDS011;6735;51.456;12.626;2022-07-10T02:36:19;4.43;;;2.00;;
13331;SDS011;6735;51.456;12.626;2022-07-10T02:38:44;4.00;;;1.60;;
13331;SDS011;6735;51.456;12.626;2022-07-10T02:41:10;5.10;;;1.47;;
13331;SDS011;6735;51.456;12.626;2022-07-10T02:43:35;5.27;;;1.80;;
13331;SDS011;6735;51.456;12.626;2022-07-10T02:46:01;3.87;;;1.60;;
13331;SDS011;6735;51.456;12.626;2022-07-10T02:48:27;3.70;;;1.37;;
13331;SDS011;6735;51.456;12.626;2022-07-10T02:50:53;2.00;;;1.40;;
13331;SDS011;6735;51.456;12.626;2022-07-10T02:53:18;5.23;;;1.80;;
13331;SDS011;6735;51.456;12.626;2022-07-10T02:55:44;7.17;;;2.27;;
13331;SDS011;6735;51.456;12.626;2022-07-10T02:58:09;4.73;;;1.83;;
13331;SDS011;6735;51.456;12.626;2022-07-10T03:00:35;3.53;;;1.70;;
13331;SDS011;6735;51.456;12.626;2022-07-10T03:03:01;3.27;;;1.70;;
13331;SDS011;6735;51.456;12.626;2022-07-10T03:05:27;4.20;;;1.87;;
13331;SDS011;6735;51.456;12.626;2022-07-10T03:07:53;3.20;;;1.80;;
13331;SDS011;6735;51.456;12.626;2022-07-10T03:10:19;5.57;;;1.80;;
13331;SDS011;6735;51.456;12.626;2022-07-10T03:12:45;3.90;;;1.70;;
13331;SDS011;6735;51.456;12.626;2022-07-10T03:15:11;5.70;;;1.53;;
13331;SDS011;6735;51.456;12.626;2022-07-10T03:17:38;7.00;;;2.13;;
13331;SDS011;6735;51.456;12.626;2022-07-10T03:20:04;7.93;;;1.70;;
13331;SDS011;6735;51.456;12.626;2022-07-10T03:22:30;3.87;;;1.63;;
13331;SDS011;6735;51.456;12.626;2022-07-10T03:24:57;7.87;;;1.90;;
13331;SDS011;6735;51.456;12.626;2022-07-10T03:27:23;3.70;;;1.50;;
13331;SDS011;6735;51.456;12.626;2022-07-10T03:29:48;5.13;;;2.23;;
13331;SDS011;6735;51.456;12.626;2022-07-10T03:32:14;4.77;;;1.80;;
13331;SDS011;6735;51.456;12.626;2022-07-10T03:34:39;4.50;;;1.67;;
13331;SDS011;6735;51.456;12.626;2022-07-10T03:37:05;3.47;;;1.47;;
13331;SDS011;6735;51.456;12.626;2022-07-10T03:39:31;5.03;;;1.67;;
13331;SDS011;6735;51.456;12.626;2022-07-10T03:41:56;4.53;;;1.70;;
13331;SDS011;6735;51.456;12.626;2022-07-10T03:44:22;8.07;;;1.70;;
13331;SDS011;6735;51.456;12.626;2022-07-10T03:46:47;2.93;;;1.60;;
13331;SDS011;6735;51.456;12.626;2022-07-10T03:49:13;3.63;;;1.57;;
13331;SDS011;6735;51.456;12.626;2022-07-10T03:51:38;6.57;;;1.67;;
13331;SDS011;6735;51.456;12.626;2022-07-10T03:54:04;8.70;;;1.90;;
13331;SDS011;6735;51.456;12.626;2022-07-10T03:56:29;3.67;;;1.67;;
13331;SDS011;6735;51.456;12.626;2022-07-10T03:59:13;5.43;;;1.80;;
13331;SDS011;6735;51.456;12.626;2022-07-10T04:01:39;5.13;;;2.23;;
13331;SDS011;6735;51.456;12.626;2022-07-10T04:04:04;4.10;;;2.07;;
13331;SDS011;6735;51.456;12.626;2022-07-10T04:06:30;5.47;;;2.30;;
13331;SDS011;6735;51.456;12.626;2022-07-10T04:08:55;6.13;;;2.10;;
13331;SDS011;6735;51.456;12.626;2022-07-10T04:11:21;6.83;;;2.43;;
13331;SDS011;6735;51.456;12.626;2022-07-10T04:13:46;5.80;;;2.20;;
13331;SDS011;6735;51.456;12.626;2022-07-10T04:16:12;5.23;;;2.17;;
13331;SDS011;6735;51.456;12.626;2022-07-10T04:18:41;6.53;;;2.37;;
13331;SDS011;6735;51.456;12.626;2022-07-10T04:21:07;3.57;;;1.87;;
13331;SDS011;6735;51.456;12.626;2022-07-10T04:23:33;4.90;;;2.27;;
13331;SDS011;6735;51.456;12.626;2022-07-10T04:25:59;6.13;;;2.40;;
13331;SDS011;6735;51.456;12.626;2022-07-10T04:28:24;4.30;;;2.00;;
13331;SDS011;6735;51.456;12.626;2022-07-10T04:30:50;6.47;;;2.67;;
13331;SDS011;6735;51.456;12.626;2022-07-10T04:33:16;4.23;;;2.30;;
13331;SDS011;6735;51.456;12.626;2022-07-10T04:35:42;4.70;;;2.10;;
13331;SDS011;6735;51.456;12.626;2022-07-10T04:38:07;4.87;;;1.90;;
13331;SDS011;6735;51.456;12.626;2022-07-10T04:40:33;3.07;;;1.50;;
13331;SDS011;6735;51.456;12.626;2022-07-10T04:42:58;7.13;;;2.10;;
13331;SDS011;6735;51.456;12.626;2022-07-10T04:45:24;3.93;;;1.70;;
13331;SDS011;6735;51.456;12.626;2022-07-10T04:47:49;5.67;;;2.23;;
13331;SDS011;6735;51.456;12.626;2022-07-10T04:50:15;4.47;;;1.70;;
13331;SDS011;6735;51.456;12.626;2022-07-10T04:52:40;5.27;;;1.90;;
13331;SDS011;6735;51.456;12.626;2022-07-10T04:55:06;7.40;;;1.70;;
13331;SDS011;6735;51.456;12.626;2022-07-10T04:57:32;1.77;;;1.20;;
13331;SDS011;6735;51.456;12.626;2022-07-10T04:59:57;3.43;;;1.40;;
13331;SDS011;6735;51.456;12.626;2022-07-10T05:02:23;5.13;;;1.40;;
13331;SDS011;6735;51.456;12.626;2022-07-10T05:04:49;2.63;;;1.30;;
13331;SDS011;6735;51.456;12.626;2022-07-10T05:07:14;2.30;;;1.10;;
13331;SDS011;6735;51.456;12.626;2022-07-10T05:09:40;3.27;;;1.40;;
13331;SDS011;6735;51.456;12.626;2022-07-10T05:12:06;2.30;;;1.10;;
13331;SDS011;6735;51.456;12.626;2022-07-10T05:14:31;2.60;;;1.47;;
13331;SDS011;6735;51.456;12.626;2022-07-10T05:16:57;1.83;;;1.23;;
13331;SDS011;6735;51.456;12.626;2022-07-10T05:19:23;2.87;;;1.27;;
13331;SDS011;6735;51.456;12.626;2022-07-10T05:21:48;2.37;;;1.03;;
13331;SDS011;6735;51.456;12.626;2022-07-10T05:24:14;2.13;;;1.13;;
13331;SDS011;6735;51.456;12.626;2022-07-10T05:26:39;1.90;;;1.10;;
13331;SDS011;6735;51.456;12.626;2022-07-10T05:29:05;1.97;;;1.13;;
13331;SDS011;6735;51.456;12.626;2022-07-10T05:31:30;2.37;;;1.30;;
13331;SDS011;6735;51.456;12.626;2022-07-10T05:33:56;1.43;;;1.07;;
13331;SDS011;6735;51.456;12.626;2022-07-10T05:36:21;1.13;;;1.07;;
13331;SDS011;6735;51.456;12.626;2022-07-10T05:38:47;4.80;;;1.40;;
13331;SDS011;6735;51.456;12.626;2022-07-10T05:41:13;2.63;;;1.40;;
13331;SDS011;6735;51.456;12.626;2022-07-10T05:43:38;1.53;;;1.40;;
13331;SDS011;6735;51.456;12.626;2022-07-10T05:46:04;1.70;;;1.40;;
13331;SDS011;6735;51.456;12.626;2022-07-10T05:48:30;1.80;;;1.40;;
13331;SDS011;6735;51.456;12.626;2022-07-10T05:50:56;1.80;;;1.50;;
13331;SDS011;6735;51.456;12.626;2022-07-10T05:53:22;1.87;;;1.47;;
13331;SDS011;6735;51.456;12.626;2022-07-10T05:55:48;3.43;;;1.67;;
13331;SDS011;6735;51.456;12.626;2022-07-10T05:58:14;5.87;;;2.00;;
13331;SDS011;6735;51.456;12.626;2022-07-10T06:00:40;5.03;;;2.00;;
13331;SDS011;6735;51.456;12.626;2022-07-10T06:03:08;3.70;;;2.07;;
13331;SDS011;6735;51.456;12.626;2022-07-10T06:05:35;5.47;;;2.03;;
13331;SDS011;6735;51.456;12.626;2022-07-10T06:08:01;5.60;;;2.10;;
13331;SDS011;6735;51.456;12.626;2022-07-10T06:10:27;4.30;;;2.00;;
13331;SDS011;6735;51.456;12.626;2022-07-10T06:12:53;3.50;;;1.97;;
13331;SDS011;6735;51.456;12.626;2022-07-10T06:15:18;2.20;;;1.53;;
13331;SDS011;6735;51.456;12.626;2022-07-10T06:17:44;1.83;;;1.50;;
13331;SDS011;6735;51.456;12.626;2022-07-10T06:20:10;3.70;;;1.57;;
13331;SDS011;6735;51.456;12.626;2022-07-10T06:22:35;2.50;;;1.37;;
13331;SDS011;6735;51.456;12.626;2022-07-10T06:25:03;1.90;;;1.40;;
13331;SDS011;6735;51.456;12.626;2022-07-10T06:27:30;1.97;;;1.40;;
13331;SDS011;6735;51.456;12.626;2022-07-10T06:29:56;3.77;;;1.87;;
13331;SDS011;6735;51.456;12.626;2022-07-10T06:32:22;2.43;;;1.70;;
13331;SDS011;6735;51.456;12.626;2022-07-10T06:34:49;2.83;;;1.57;;
13331;SDS011;6735;51.456;12.626;2022-07-10T06:37:18;2.30;;;1.50;;
13331;SDS011;6735;51.456;12.626;2022-07-10T06:39:45;3.07;;;1.60;;
13331;SDS011;6735;51.456;12.626;2022-07-10T06:42:11;4.13;;;1.80;;
13331;SDS011;6735;51.456;12.626;2022-07-10T06:44:37;3.67;;;2.10;;
13331;SDS011;6735;51.456;12.626;2022-07-10T06:47:03;2.07;;;1.20;;
13331;SDS011;6735;51.456;12.626;2022-07-10T06:49:47;5.37;;;1.50;;
13331;SDS011;6735;51.456;12.626;2022-07-10T06:52:13;2.30;;;1.37;;
13331;SDS011;6735;51.456;12.626;2022-07-10T06:54:40;3.03;;;1.10;;
13331;SDS011;6735;51.456;12.626;2022-07-10T06:57:07;2.70;;;1.40;;
13331;SDS011;6735;51.456;12.626;2022-07-10T06:59:33;3.07;;;1.50;;
13331;SDS011;6735;51.456;12.626;2022-07-10T07:01:58;3.73;;;1.30;;
13331;SDS011;6735;51.456;12.626;2022-07-10T07:04:24;3.10;;;1.67;;
13331;SDS011;6735;51.456;12.626;2022-07-10T07:06:49;4.47;;;1.80;;
13331;SDS011;6735;51.456;12.626;2022-07-10T07:09:15;3.30;;;1.70;;
13331;SDS011;6735;51.456;12.626;2022-07-10T07:11:41;3.60;;;2.00;;
13331;SDS011;6735;51.456;12.626;2022-07-10T07:14:06;3.57;;;2.17;;
13331;SDS011;6735;51.456;12.626;2022-07-10T07:16:32;4.63;;;2.40;;
13331;SDS011;6735;51.456;12.626;2022-07-10T07:19:06;2.93;;;2.00;;
13331;SDS011;6735;51.456;12.626;2022-07-10T07:21:33;3.70;;;2.10;;
13331;SDS011;6735;51.456;12.626;2022-07-10T07:24:17;4.60;;;2.07;;
13331;SDS011;6735;51.456;12.626;2022-07-10T07:26:44;3.50;;;1.83;;
13331;SDS011;6735;51.456;12.626;2022-07-10T07:29:12;5.57;;;1.80;;
13331;SDS011;6735;51.456;12.626;2022-07-10T07:31:38;4.67;;;2.03;;
13331;SDS011;6735;51.456;12.626;2022-07-10T07:34:04;5.37;;;1.90;;
13331;SDS011;6735;51.456;12.626;2022-07-10T07:36:30;5.43;;;1.90;;
13331;SDS011;6735;51.456;12.626;2022-07-10T07:38:56;4.63;;;1.80;;
13331;SDS011;6735;51.456;12.626;2022-07-10T07:41:21;6.07;;;2.43;;
13331;SDS011;6735;51.456;12.626;2022-07-10T07:43:47;7.73;;;2.60;;
13331;SDS011;6735;51.456;12.626;2022-07-10T07:46:13;3.47;;;1.70;;
13331;SDS011;6735;51.456;12.626;2022-07-10T07:48:39;8.87;;;2.10;;
13331;SDS011;6735;51.456;12.626;2022-07-10T07:51:05;4.63;;;1.80;;
13331;SDS011;6735;51.456;12.626;2022-07-10T07:53:31;6.43;;;2.00;;
13331;SDS011;6735;51.456;12.626;2022-07-10T07:55:56;4.97;;;2.00;;
13331;SDS011;6735;51.456;12.626;2022-07-10T07:58:22;6.50;;;2.30;;
13331;SDS011;6735;51.456;12.626;2022-07-10T08:00:47;5.33;;;2.00;;
13331;SDS011;6735;51.456;12.626;2022-07-10T08:03:13;7.23;;;2.37;;
13331;SDS011;6735;51.456;12.626;2022-07-10T08:05:38;4.60;;;1.93;;
13331;SDS011;6735;51.456;12.626;2022-07-10T08:08:04;3.90;;;2.40;;
13331;SDS011;6735;51.456;12.626;2022-07-10T08:10:32;3.23;;;2.00;;
13331;SDS011;6735;51.456;12.626;2022-07-10T08:12:58;4.27;;;1.90;;
13331;SDS011;6735;51.456;12.626;2022-07-10T08:15:23;6.20;;;2.30;;
13331;SDS011;6735;51.456;12.626;2022-07-10T08:17:49;3.93;;;1.80;;
13331;SDS011;6735;51.456;12.626;2022-07-10T08:20:16;5.47;;;2.03;;
13331;SDS011;6735;51.456;12.626;2022-07-10T08:22:42;5.33;;;1.80;;
13331;SDS011;6735;51.456;12.626;2022-07-10T08:25:08;4.20;;;2.10;;
13331;SDS011;6735;51.456;12.626;2022-07-10T08:27:34;6.77;;;2.00;;
13331;SDS011;6735;51.456;12.626;2022-07-10T08:30:00;4.80;;;2.17;;
13331;SDS011;6735;51.456;12.626;2022-07-10T08:32:26;5.70;;;2.17;;
13331;SDS011;6735;51.456;12.626;2022-07-10T08:34:52;5.53;;;2.20;;
13331;SDS011;6735;51.456;12.626;2022-07-10T08:37:18;6.70;;;3.03;;
13331;SDS011;6735;51.456;12.626;2022-07-10T08:39:44;4.87;;;2.10;;
13331;SDS011;6735;51.456;12.626;2022-07-10T08:42:11;4.70;;;2.30;;
13331;SDS011;6735;51.456;12.626;2022-07-10T08:44:37;4.50;;;1.97;;
13331;SDS011;6735;51.456;12.626;2022-07-10T08:47:03;5.37;;;1.97;;
13331;SDS011;6735;51.456;12.626;2022-07-10T08:49:30;5.77;;;1.97;;
13331;SDS011;6735;51.456;12.626;2022-07-10T08:52:07;5.10;;;2.33;;
13331;SDS011;6735;51.456;12.626;2022-07-10T08:54:38;7.20;;;2.50;;
13331;SDS011;6735;51.456;12.626;2022-07-10T08:57:04;5.33;;;2.37;;
13331;SDS011;6735;51.456;12.626;2022-07-10T08:59:30;5.87;;;2.07;;
13331;SDS011;6735;51.456;12.626;2022-07-10T09:01:56;4.77;;;2.27;;
13331;SDS011;6735;51.456;12.626;2022-07-10T09:04:23;6.30;;;2.37;;
13331;SDS011;6735;51.456;12.626;2022-07-10T09:06:50;6.70;;;2.20;;
13331;SDS011;6735;51.456;12.626;2022-07-10T09:09:17;6.47;;;2.40;;
13331;SDS011;6735;51.456;12.626;2022-07-10T09:11:44;10.77;;;2.50;;
13331;SDS011;6735;51.456;12.626;2022-07-10T09:14:11;6.27;;;2.40;;
13331;SDS011;6735;51.456;12.626;2022-07-10T09:16:40;6.83;;;2.70;;
13331;SDS011;6735;51.456;12.626;2022-07-10T09:21:45;8.00;;;2.67;;
13331;SDS011;6735;51.456;12.626;2022-07-10T09:24:12;7.00;;;2.53;;
13331;SDS011;6735;51.456;12.626;2022-07-10T09:26:39;5.60;;;2.30;;
13331;SDS011;6735;51.456;12.626;2022-07-10T09:29:06;6.40;;;2.50;;
13331;SDS011;6735;51.456;12.626;2022-07-10T09:31:48;6.37;;;1.93;;
13331;SDS011;6735;51.456;12.626;2022-07-10T09:34:16;7.23;;;2.73;;
13331;SDS011;6735;51.456;12.626;2022-07-10T09:36:42;5.30;;;2.30;;
13331;SDS011;6735;51.456;12.626;2022-07-10T09:39:08;7.87;;;2.10;;
13331;SDS011;6735;51.456;12.626;2022-07-10T09:41:34;4.43;;;1.90;;
13331;SDS011;6735;51.456;12.626;2022-07-10T09:44:03;5.60;;;2.00;;
13331;SDS011;6735;51.456;12.626;2022-07-10T09:49:14;5.83;;;2.20;;
13331;SDS011;6735;51.456;12.626;2022-07-10T09:51:41;4.93;;;1.90;;
13331;SDS011;6735;51.456;12.626;2022-07-10T09:54:08;6.87;;;2.53;;
13331;SDS011;6735;51.456;12.626;2022-07-10T09:56:39;3.13;;;1.80;;
13331;SDS011;6735;51.456;12.626;2022-07-10T09:59:13;5.70;;;2.20;;
13331;SDS011;6735;51.456;12.626;2022-07-10T10:01:44;5.77;;;1.90;;
13331;SDS011;6735;51.456;12.626;2022-07-10T10:04:14;4.77;;;2.10;;
13331;SDS011;6735;51.456;12.626;2022-07-10T10:06:41;5.70;;;1.77;;
13331;SDS011;6735;51.456;12.626;2022-07-10T10:09:15;5.37;;;2.13;;
13331;SDS011;6735;51.456;12.626;2022-07-10T10:11:52;4.40;;;1.70;;
13331;SDS011;6735;51.456;12.626;2022-07-10T10:14:25;6.77;;;1.90;;
13331;SDS011;6735;51.456;12.626;2022-07-10T10:16:52;5.50;;;2.20;;
13331;SDS011;6735;51.456;12.626;2022-07-10T10:19:20;4.97;;;2.20;;
13331;SDS011;6735;51.456;12.626;2022-07-10T10:22:07;5.03;;;2.50;;
13331;SDS011;6735;51.456;12.626;2022-07-10T10:24:33;3.83;;;1.90;;
13331;SDS011;6735;51.456;12.626;2022-07-10T10:27:01;3.63;;;2.33;;
13331;SDS011;6735;51.456;12.626;2022-07-10T10:29:29;6.50;;;2.10;;
13331;SDS011;6735;51.456;12.626;2022-07-10T10:31:55;5.77;;;2.10;;
13331;SDS011;6735;51.456;12.626;2022-07-10T10:34:37;5.17;;;2.30;;
13331;SDS011;6735;51.456;12.626;2022-07-10T10:37:03;4.00;;;1.87;;
13331;SDS011;6735;51.456;12.626;2022-07-10T10:39:32;4.33;;;2.20;;
13331;SDS011;6735;51.456;12.626;2022-07-10T10:42:34;4.43;;;2.20;;
13331;SDS011;6735;51.456;12.626;2022-07-10T10:48:10;9.07;;;2.30;;
13331;SDS011;6735;51.456;12.626;2022-07-10T10:50:48;8.43;;;2.40;;
13331;SDS011;6735;51.456;12.626;2022-07-10T10:53:18;4.83;;;2.10;;
13331;SDS011;6735;51.456;12.626;2022-07-10T10:58:36;7.23;;;2.30;;
13331;SDS011;6735;51.456;12.626;2022-07-10T11:06:44;5.17;;;1.83;;
13331;SDS011;6735;51.456;12.626;2022-07-10T11:09:22;6.53;;;2.10;;
13331;SDS011;6735;51.456;12.626;2022-07-10T11:11:57;8.27;;;2.20;;
13331;SDS011;6735;51.456;12.626;2022-07-10T11:14:23;5.00;;;2.00;;
13331;SDS011;6735;51.456;12.626;2022-07-10T11:16:53;3.93;;;1.93;;
13331;SDS011;6735;51.456;12.626;2022-07-10T11:19:20;4.70;;;2.00;;
13331;SDS011;6735;51.456;12.626;2022-07-10T11:21:47;5.20;;;2.27;;
13331;SDS011;6735;51.456;12.626;2022-07-10T11:24:31;5.27;;;2.03;;
13331;SDS011;6735;51.456;12.626;2022-07-10T11:29:56;5.83;;;1.90;;
13331;SDS011;6735;51.456;12.626;2022-07-10T11:32:25;4.80;;;1.80;;
13331;SDS011;6735;51.456;12.626;2022-07-10T11:34:51;6.40;;;2.23;;
13331;SDS011;6735;51.456;12.626;2022-07-10T11:37:16;6.33;;;2.10;;
13331;SDS011;6735;51.456;12.626;2022-07-10T11:39:42;4.00;;;1.70;;
13331;SDS011;6735;51.456;12.626;2022-07-10T11:42:08;4.33;;;1.97;;
13331;SDS011;6735;51.456;12.626;2022-07-10T11:44:34;5.70;;;2.10;;
13331;SDS011;6735;51.456;12.626;2022-07-10T11:46:59;5.50;;;2.00;;
13331;SDS011;6735;51.456;12.626;2022-07-10T11:49:27;4.50;;;1.80;;
13331;SDS011;6735;51.456;12.626;2022-07-10T11:51:53;4.27;;;1.70;;
13331;SDS011;6735;51.456;12.626;2022-07-10T11:54:19;5.67;;;2.27;;
13331;SDS011;6735;51.456;12.626;2022-07-10T11:56:49;5.43;;;2.17;;
13331;SDS011;6735;51.456;12.626;2022-07-10T11:59:17;5.67;;;1.87;;
13331;SDS011;6735;51.456;12.626;2022-07-10T12:01:48;5.87;;;1.80;;
13331;SDS011;6735;51.456;12.626;2022-07-10T12:04:15;3.87;;;1.83;;
13331;SDS011;6735;51.456;12.626;2022-07-10T12:06:43;4.80;;;1.90;;
13331;SDS011;6735;51.456;12.626;2022-07-10T12:09:14;5.43;;;2.13;;
13331;SDS011;6735;51.456;12.626;2022-07-10T12:11:41;6.43;;;2.10;;
13331;SDS011;6735;51.456;12.626;2022-07-10T12:16:47;4.57;;;2.10;;
13331;SDS011;6735;51.456;12.626;2022-07-10T12:19:16;7.60;;;2.27;;
13331;SDS011;6735;51.456;12.626;2022-07-10T12:21:44;5.73;;;2.10;;
13331;SDS011;6735;51.456;12.626;2022-07-10T12:24:11;5.13;;;1.80;;
13331;SDS011;6735;51.456;12.626;2022-07-10T12:26:40;4.67;;;2.17;;
13331;SDS011;6735;51.456;12.626;2022-07-10T12:29:10;4.20;;;1.90;;
13331;SDS011;6735;51.456;12.626;2022-07-10T12:31:50;4.90;;;2.07;;
13331;SDS011;6735;51.456;12.626;2022-07-10T12:34:18;4.83;;;1.90;;
13331;SDS011;6735;51.456;12.626;2022-07-10T12:36:51;4.87;;;1.83;;
13331;SDS011;6735;51.456;12.626;2022-07-10T12:39:18;4.67;;;1.70;;
13331;SDS011;6735;51.456;12.626;2022-07-10T12:42:01;3.20;;;1.93;;
13331;SDS011;6735;51.456;12.626;2022-07-10T12:44:50;3.57;;;1.73;;
13331;SDS011;6735;51.456;12.626;2022-07-10T12:47:15;4.93;;;2.17;;
13331;SDS011;6735;51.456;12.626;2022-07-10T12:57:54;4.33;;;2.07;;
13331;SDS011;6735;51.456;12.626;2022-07-10T13:02:48;5.63;;;2.40;;
13331;SDS011;6735;51.456;12.626;2022-07-10T13:05:31;8.50;;;1.90;;
13331;SDS011;6735;51.456;12.626;2022-07-10T13:08:07;5.13;;;2.10;;
13331;SDS011;6735;51.456;12.626;2022-07-10T13:10:54;6.23;;;1.80;;
13331;SDS011;6735;51.456;12.626;2022-07-10T13:13:21;6.80;;;2.10;;
13331;SDS011;6735;51.456;12.626;2022-07-10T13:15:47;3.87;;;1.93;;
13331;SDS011;6735;51.456;12.626;2022-07-10T13:18:22;5.10;;;2.13;;
13331;SDS011;6735;51.456;12.626;2022-07-10T13:20:49;5.40;;;1.97;;
13331;SDS011;6735;51.456;12.626;2022-07-10T13:23:16;4.10;;;1.73;;
13331;SDS011;6735;51.456;12.626;2022-07-10T13:25:47;8.93;;;2.30;;
13331;SDS011;6735;51.456;12.626;2022-07-10T13:28:16;5.10;;;2.07;;
13331;SDS011;6735;51.456;12.626;2022-07-10T13:30:42;3.83;;;1.93;;
13331;SDS011;6735;51.456;12.626;2022-07-10T13:33:08;4.77;;;2.00;;
13331;SDS011;6735;51.456;12.626;2022-07-10T13:35:33;6.43;;;1.90;;
13331;SDS011;6735;51.456;12.626;2022-07-10T13:38:00;4.93;;;2.00;;
13331;SDS011;6735;51.456;12.626;2022-07-10T13:40:27;7.07;;;2.00;;
13331;SDS011;6735;51.456;12.626;2022-07-10T13:42:57;6.97;;;2.13;;
13331;SDS011;6735;51.456;12.626;2022-07-10T13:45:23;3.53;;;1.60;;
13331;SDS011;6735;51.456;12.626;2022-07-10T13:47:51;7.07;;;2.20;;
13331;SDS011;6735;51.456;12.626;2022-07-10T13:50:18;5.13;;;2.10;;
13331;SDS011;6735;51.456;12.626;2022-07-10T13:52:44;5.03;;;1.93;;
13331;SDS011;6735;51.456;12.626;2022-07-10T13:55:09;5.07;;;1.97;;
13331;SDS011;6735;51.456;12.626;2022-07-10T13:57:35;4.83;;;1.90;;
13331;SDS011;6735;51.456;12.626;2022-07-10T14:00:01;5.90;;;2.00;;
13331;SDS011;6735;51.456;12.626;2022-07-10T14:02:27;5.10;;;2.10;;
13331;SDS011;6735;51.456;12.626;2022-07-10T14:04:52;5.80;;;2.00;;
13331;SDS011;6735;51.456;12.626;2022-07-10T14:07:18;4.30;;;2.10;;
13331;SDS011;6735;51.456;12.626;2022-07-10T14:09:43;4.97;;;2.43;;
13331;SDS011;6735;51.456;12.626;2022-07-10T14:12:09;4.60;;;2.00;;
13331;SDS011;6735;51.456;12.626;2022-07-10T14:14:35;4.13;;;1.93;;
13331;SDS011;6735;51.456;12.626;2022-07-10T14:17:01;6.47;;;2.00;;
13331;SDS011;6735;51.456;12.626;2022-07-10T14:19:26;4.53;;;1.93;;
13331;SDS011;6735;51.456;12.626;2022-07-10T14:21:52;5.63;;;2.43;;
13331;SDS011;6735;51.456;12.626;2022-07-10T14:24:17;5.03;;;2.23;;
13331;SDS011;6735;51.456;12.626;2022-07-10T14:26:43;6.57;;;2.50;;
13331;SDS011;6735;51.456;12.626;2022-07-10T14:29:08;5.90;;;2.20;;
13331;SDS011;6735;51.456;12.626;2022-07-10T14:31:34;4.73;;;2.03;;
13331;SDS011;6735;51.456;12.626;2022-07-10T14:34:00;4.80;;;2.10;;
13331;SDS011;6735;51.456;12.626;2022-07-10T14:36:25;5.20;;;2.40;;
13331;SDS011;6735;51.456;12.626;2022-07-10T14:38:54;7.90;;;2.10;;
13331;SDS011;6735;51.456;12.626;2022-07-10T14:41:20;5.50;;;2.20;;
13331;SDS011;6735;51.456;12.626;2022-07-10T14:43:46;6.57;;;2.10;;
13331;SDS011;6735;51.456;12.626;2022-07-10T14:46:11;5.77;;;2.13;;
13331;SDS011;6735;51.456;12.626;2022-07-10T14:48:37;4.47;;;2.20;;
13331;SDS011;6735;51.456;12.626;2022-07-10T14:51:03;4.57;;;2.10;;
13331;SDS011;6735;51.456;12.626;2022-07-10T14:53:29;5.63;;;2.20;;
13331;SDS011;6735;51.456;12.626;2022-07-10T14:55:59;6.67;;;1.83;;
13331;SDS011;6735;51.456;12.626;2022-07-10T14:58:25;5.07;;;2.00;;
13331;SDS011;6735;51.456;12.626;2022-07-10T15:00:50;6.00;;;2.13;;
13331;SDS011;6735;51.456;12.626;2022-07-10T15:03:16;8.47;;;2.30;;
13331;SDS011;6735;51.456;12.626;2022-07-10T15:05:42;4.83;;;1.97;;
13331;SDS011;6735;51.456;12.626;2022-07-10T15:08:07;5.73;;;2.00;;
13331;SDS011;6735;51.456;12.626;2022-07-10T15:10:34;4.70;;;2.17;;
13331;SDS011;6735;51.456;12.626;2022-07-10T15:12:59;4.13;;;1.83;;
13331;SDS011;6735;51.456;12.626;2022-07-10T15:15:29;4.60;;;2.00;;
13331;SDS011;6735;51.456;12.626;2022-07-10T15:17:55;4.87;;;1.93;;
13331;SDS011;6735;51.456;12.626;2022-07-10T15:20:20;3.40;;;2.07;;